createdAt,value
2023-02-09T00:02:11.503Z,0.37
2023-02-09T00:04:40.593Z,0.47
2023-02-09T00:07:08.243Z,0.47
2023-02-09T00:09:36.082Z,0.53
2023-02-09T00:12:21.545Z,0.57
2023-02-09T00:14:50.711Z,0.57
2023-02-09T00:17:18.286Z,0.68
2023-02-09T00:19:48.370Z,0.71
2023-02-09T00:22:17.061Z,0.68
2023-02-09T00:24:46.125Z,0.73
2023-02-09T00:27:13.771Z,0.73
2023-02-09T00:29:41.570Z,0.73
2023-02-09T00:32:09.345Z,0.71
2023-02-09T00:34:40.488Z,0.69
2023-02-09T00:37:10.188Z,0.71
2023-02-09T00:39:37.922Z,0.74
2023-02-09T00:42:08.449Z,0.74
2023-02-09T00:44:41.567Z,0.68
2023-02-09T00:47:10.156Z,0.67
2023-02-09T00:49:42.523Z,0.70
2023-02-09T00:52:11.678Z,0.63
2023-02-09T00:54:39.347Z,0.66
2023-02-09T00:57:07.121Z,0.63
2023-02-09T00:59:35.835Z,0.66
2023-02-09T01:02:04.836Z,0.61
2023-02-09T01:04:32.591Z,0.57
2023-02-09T01:07:00.352Z,0.55
2023-02-09T01:09:29.727Z,0.48
2023-02-09T01:11:57.407Z,0.40
2023-02-09T01:14:25.242Z,0.39
2023-02-09T01:16:53.000Z,0.36
2023-02-09T01:19:24.628Z,0.38
2023-02-09T01:21:52.652Z,0.39
2023-02-09T01:24:21.505Z,0.33
2023-02-09T01:26:50.949Z,0.38
2023-02-09T01:29:20.383Z,0.30
2023-02-09T01:31:49.496Z,0.38
2023-02-09T01:34:18.978Z,0.40
2023-02-09T01:36:48.346Z,0.39
2023-02-09T01:39:16.181Z,0.40
2023-02-09T01:41:45.015Z,0.37
2023-02-09T01:44:50.265Z,0.38
2023-02-09T01:47:21.135Z,0.36
2023-02-09T01:49:50.981Z,0.28
2023-02-09T01:52:22.075Z,0.37
2023-02-09T01:54:54.963Z,0.35
2023-02-09T01:57:28.501Z,0.40
2023-02-09T02:00:01.349Z,0.35
2023-02-09T02:02:30.572Z,0.32
2023-02-09T02:04:58.367Z,0.18
2023-02-09T02:07:30.429Z,0.16
2023-02-09T02:09:58.674Z,0.12
2023-02-09T02:12:27.137Z,0.15
2023-02-09T02:14:54.802Z,0.22
2023-02-09T02:17:38.489Z,0.21
2023-02-09T02:20:30.891Z,0.07
2023-02-09T02:23:11.427Z,0.04
2023-02-09T02:26:12.397Z,0.15
2023-02-09T02:28:48.249Z,0.19
2023-02-09T02:31:35.895Z,0.20
2023-02-09T02:34:09.215Z,0.20
2023-02-09T02:36:43.413Z,0.14
2023-02-09T02:39:18.141Z,0.09
2023-02-09T02:42:09.720Z,0.08
2023-02-09T02:44:41.674Z,0.17
2023-02-09T02:47:15.016Z,0.11
2023-02-09T02:49:46.110Z,0.16
2023-02-09T02:52:15.480Z,0.12
2023-02-09T02:54:47.625Z,0.09
2023-02-09T02:57:18.836Z,0.11
2023-02-09T02:59:53.241Z,0.12
2023-02-09T03:02:24.402Z,0.08
2023-02-09T03:04:57.352Z,0.12
2023-02-09T03:07:25.601Z,0.10
2023-02-09T03:09:55.192Z,0.15
2023-02-09T03:12:33.346Z,0.09
2023-02-09T03:15:14.770Z,0.09
2023-02-09T03:17:49.166Z,0.12
2023-02-09T03:20:26.731Z,0.07
2023-02-09T03:22:58.681Z,0.06
2023-02-09T03:25:31.445Z,0.06
2023-02-09T03:28:04.317Z,0.03
2023-02-09T03:30:33.910Z,0.06
2023-02-09T03:33:04.827Z,0.06
2023-02-09T03:35:38.284Z,0.09
2023-02-09T03:38:09.373Z,0.14
2023-02-09T03:40:37.268Z,0.14
2023-02-09T03:43:05.069Z,0.16
2023-02-09T03:45:32.924Z,0.16
2023-02-09T03:48:09.234Z,0.21
2023-02-09T03:50:38.630Z,0.21
2023-02-09T03:53:08.773Z,0.18
2023-02-09T03:55:37.133Z,0.21
2023-02-09T03:58:04.823Z,0.23
2023-02-09T04:00:33.701Z,0.24
2023-02-09T04:03:01.609Z,0.23
2023-02-09T04:05:30.437Z,0.22
2023-02-09T04:08:00.379Z,0.24
2023-02-09T04:10:28.440Z,0.11
2023-02-09T04:12:56.118Z,0.11
2023-02-09T04:15:23.831Z,0.05
2023-02-09T04:17:53.800Z,0.04
2023-02-09T04:20:21.518Z,0.02
2023-02-09T04:22:49.264Z,0.08
2023-02-09T04:25:18.608Z,0.10
2023-02-09T04:27:46.263Z,0.08
2023-02-09T04:30:15.387Z,0.09
2023-02-09T04:32:43.137Z,0.14
2023-02-09T04:35:10.893Z,0.09
2023-02-09T04:37:40.856Z,0.28
2023-02-09T04:40:09.907Z,0.33
2023-02-09T04:42:38.839Z,0.42
2023-02-09T04:45:07.316Z,0.47
2023-02-09T04:47:34.935Z,0.49
2023-02-09T04:50:02.529Z,0.52
2023-02-09T04:52:30.217Z,0.57
2023-02-09T04:54:57.872Z,0.62
2023-02-09T04:57:43.412Z,0.55
2023-02-09T05:00:15.125Z,0.48
2023-02-09T05:02:44.462Z,0.46
2023-02-09T05:05:12.156Z,0.40
2023-02-09T05:07:42.254Z,0.36
2023-02-09T05:10:10.370Z,0.33
2023-02-09T05:12:38.198Z,0.26
2023-02-09T05:15:06.373Z,0.15
2023-02-09T05:17:35.549Z,0.19
2023-02-09T05:20:03.555Z,0.09
2023-02-09T05:22:32.508Z,0.12
2023-02-09T05:25:00.249Z,0.09
2023-02-09T05:27:27.900Z,0.13
2023-02-09T05:29:55.752Z,0.16
2023-02-09T05:32:23.510Z,0.11
2023-02-09T05:34:52.605Z,0.14
2023-02-09T05:37:20.330Z,0.07
2023-02-09T05:39:51.005Z,0.07
2023-02-09T05:42:18.736Z,0.03
2023-02-09T05:44:47.808Z,0.07
2023-02-09T05:47:17.351Z,0.05
2023-02-09T05:49:45.122Z,0.02
2023-02-09T05:52:16.619Z,-0.10
2023-02-09T05:54:45.830Z,-0.11
2023-02-09T05:57:13.803Z,-0.20
2023-02-09T05:59:41.547Z,-0.17
2023-02-09T06:02:09.623Z,-0.13
2023-02-09T06:04:39.479Z,-0.10
2023-02-09T06:07:09.918Z,-0.05
2023-02-09T06:09:40.300Z,-0.05
2023-02-09T06:12:08.117Z,0.01
2023-02-09T06:14:37.606Z,-0.03
2023-02-09T06:17:05.385Z,-0.06
2023-02-09T06:19:36.649Z,-0.09
2023-02-09T06:22:04.734Z,-0.12
2023-02-09T06:24:32.437Z,-0.19
2023-02-09T06:27:02.439Z,-0.17
2023-02-09T06:29:31.251Z,-0.11
2023-02-09T06:32:07.212Z,-0.08
2023-02-09T06:34:35.488Z,-0.06
2023-02-09T06:37:03.675Z,-0.07
2023-02-09T06:39:36.330Z,-0.08
2023-02-09T06:42:06.581Z,-0.07
2023-02-09T06:44:34.292Z,0.01
2023-02-09T06:47:04.682Z,-0.01
2023-02-09T06:49:34.772Z,-0.17
2023-02-09T06:52:03.978Z,-0.26
2023-02-09T06:54:31.675Z,-0.32
2023-02-09T06:56:59.380Z,-0.47
2023-02-09T06:59:28.380Z,-0.41
2023-02-09T07:01:56.156Z,-0.47
2023-02-09T07:04:23.979Z,-0.35
2023-02-09T07:06:51.731Z,-0.27
2023-02-09T07:09:19.765Z,-0.18
2023-02-09T07:11:47.577Z,-0.18
2023-02-09T07:14:15.924Z,-0.10
2023-02-09T07:16:46.065Z,-0.07
2023-02-09T07:19:14.101Z,-0.08
2023-02-09T07:21:41.841Z,-0.01
2023-02-09T07:24:09.692Z,0.06
2023-02-09T07:26:37.367Z,0.10
2023-02-09T07:29:05.073Z,0.13
2023-02-09T07:31:32.928Z,0.20
2023-02-09T07:34:01.993Z,0.22
2023-02-09T07:36:29.800Z,0.24
2023-02-09T07:38:58.222Z,0.28
2023-02-09T07:41:28.883Z,0.34
2023-02-09T07:43:57.451Z,0.38
2023-02-09T07:46:25.622Z,0.32
2023-02-09T07:48:59.460Z,0.35
2023-02-09T07:51:32.358Z,0.39
2023-02-09T07:54:01.580Z,0.33
2023-02-09T07:56:30.043Z,0.34
2023-02-09T07:58:58.364Z,0.39
2023-02-09T08:01:29.087Z,0.44
2023-02-09T08:03:57.525Z,0.50
2023-02-09T08:06:42.131Z,0.56
2023-02-09T08:09:13.428Z,0.64
2023-02-09T08:11:47.392Z,0.68
2023-02-09T08:14:19.785Z,0.70
2023-02-09T08:16:50.379Z,0.57
2023-02-09T08:19:21.095Z,0.70
2023-02-09T08:21:51.204Z,0.69
2023-02-09T08:24:21.585Z,0.65
2023-02-09T08:26:50.631Z,0.72
2023-02-09T08:29:18.269Z,0.58
2023-02-09T08:31:46.508Z,0.67
2023-02-09T08:34:14.643Z,0.72
2023-02-09T08:36:45.290Z,0.80
2023-02-09T08:39:14.398Z,0.54
2023-02-09T08:41:42.159Z,0.48
2023-02-09T08:44:09.933Z,0.52
2023-02-09T08:46:39.026Z,0.49
2023-02-09T08:49:06.939Z,0.46
2023-02-09T08:51:34.796Z,0.70
2023-02-09T08:54:02.711Z,0.81
2023-02-09T08:56:31.760Z,0.87
2023-02-09T08:58:59.479Z,0.95
2023-02-09T09:01:27.401Z,0.90
2023-02-09T09:03:55.641Z,0.97
2023-02-09T09:06:23.499Z,1.03
2023-02-09T09:08:51.992Z,1.10
2023-02-09T09:11:20.776Z,1.24
2023-02-09T09:13:49.925Z,1.17
2023-02-09T09:16:19.436Z,1.31
2023-02-09T09:18:47.210Z,1.36
2023-02-09T09:21:16.826Z,1.44
2023-02-09T09:23:44.857Z,1.46
2023-02-09T09:26:12.877Z,1.47
2023-02-09T09:28:40.563Z,1.42
2023-02-09T09:31:10.535Z,1.33
2023-02-09T09:33:38.373Z,1.30
2023-02-09T09:36:07.842Z,1.36
2023-02-09T09:38:36.630Z,1.39
2023-02-09T09:41:05.195Z,1.47
2023-02-09T09:43:35.808Z,1.44
2023-02-09T09:46:05.144Z,1.46
2023-02-09T09:48:42.029Z,1.44
2023-02-09T09:51:13.954Z,1.50
2023-02-09T09:53:44.270Z,1.65
2023-02-09T09:56:14.023Z,1.83
2023-02-09T09:58:44.876Z,1.87
2023-02-09T10:01:15.036Z,1.88
2023-02-09T10:03:44.728Z,1.81
2023-02-09T10:06:16.620Z,1.88
2023-02-09T10:08:49.887Z,1.92
2023-02-09T10:11:18.772Z,2.07
2023-02-09T10:13:50.754Z,2.19
2023-02-09T10:16:21.882Z,2.37
2023-02-09T10:18:53.262Z,2.31
2023-02-09T10:21:21.172Z,2.33
2023-02-09T10:23:50.885Z,2.32
2023-02-09T10:26:24.263Z,2.13
2023-02-09T10:28:54.153Z,2.20
2023-02-09T10:31:25.340Z,2.35
2023-02-09T10:33:59.287Z,2.50
2023-02-09T10:36:30.264Z,2.59
2023-02-09T10:39:14.392Z,2.57
2023-02-09T10:41:44.371Z,2.56
2023-02-09T10:44:21.063Z,2.54
2023-02-09T10:46:49.530Z,2.55
2023-02-09T10:49:35.261Z,2.69
2023-02-09T10:52:19.040Z,2.76
2023-02-09T10:54:51.456Z,2.90
2023-02-09T10:57:25.039Z,2.86
2023-02-09T10:59:54.546Z,2.80
2023-02-09T11:02:36.979Z,2.79
2023-02-09T11:05:28.831Z,2.89
2023-02-09T11:08:02.112Z,2.96
2023-02-09T11:10:32.968Z,3.07
2023-02-09T11:13:01.024Z,3.12
2023-02-09T11:15:41.640Z,3.16
2023-02-09T11:18:16.562Z,3.16
2023-02-09T11:20:52.593Z,3.17
2023-02-09T11:23:36.913Z,3.17
2023-02-09T11:26:14.479Z,3.15
2023-02-09T11:28:52.764Z,3.14
2023-02-09T11:31:55.301Z,3.15
2023-02-09T11:34:45.391Z,3.25
2023-02-09T11:37:26.191Z,3.31
2023-02-09T11:40:02.759Z,3.32
2023-02-09T11:42:50.617Z,3.30
2023-02-09T11:45:23.500Z,3.11
2023-02-09T11:48:01.315Z,3.13
2023-02-09T11:50:34.780Z,3.15
2023-02-09T11:53:12.754Z,3.10
2023-02-09T11:55:45.145Z,3.23
2023-02-09T11:58:29.051Z,3.33
2023-02-09T12:01:14.585Z,3.33
2023-02-09T12:03:56.259Z,3.37
2023-02-09T12:06:30.252Z,3.42
2023-02-09T12:09:09.518Z,3.40
2023-02-09T12:11:46.431Z,3.42
2023-02-09T12:14:29.181Z,3.47
2023-02-09T12:17:01.615Z,3.45
2023-02-09T12:19:35.815Z,3.51
2023-02-09T12:22:37.121Z,3.54
2023-02-09T12:25:22.816Z,3.69
2023-02-09T12:28:13.504Z,3.81
2023-02-09T12:31:03.225Z,3.96
2023-02-09T12:33:36.261Z,4.05
2023-02-09T12:36:07.437Z,3.95
2023-02-09T12:38:54.525Z,4.08
2023-02-09T12:41:28.104Z,4.18
2023-02-09T12:44:26.917Z,4.27
2023-02-09T12:46:58.030Z,4.32
2023-02-09T12:49:33.771Z,4.40
2023-02-09T12:52:16.264Z,4.46
2023-02-09T12:54:48.900Z,4.49
2023-02-09T12:57:53.633Z,4.60
2023-02-09T13:00:42.102Z,4.56
2023-02-09T13:03:18.920Z,4.60
2023-02-09T13:05:48.827Z,4.60
2023-02-09T13:08:23.539Z,4.61
2023-02-09T13:10:58.393Z,4.56
2023-02-09T13:13:34.772Z,4.66
2023-02-09T13:16:32.383Z,4.80
2023-02-09T13:19:13.402Z,4.66
2023-02-09T13:21:57.185Z,4.72
2023-02-09T13:24:35.369Z,4.81
2023-02-09T13:27:04.419Z,4.83
2023-02-09T13:29:33.772Z,4.63
2023-02-09T13:32:22.353Z,4.69
2023-02-09T13:34:58.597Z,4.79
2023-02-09T13:37:33.820Z,4.78
2023-02-09T13:40:04.069Z,4.76
2023-02-09T13:42:37.087Z,4.70
2023-02-09T13:45:17.737Z,4.72
2023-02-09T13:47:46.166Z,4.72
2023-02-09T13:50:17.354Z,4.69
2023-02-09T13:52:45.296Z,4.69
2023-02-09T13:55:16.379Z,4.70
2023-02-09T13:57:46.126Z,4.70
2023-02-09T14:00:24.687Z,4.78
2023-02-09T14:02:56.202Z,4.77
2023-02-09T14:05:34.275Z,4.74
2023-02-09T14:08:02.969Z,4.61
2023-02-09T14:10:34.736Z,4.55
2023-02-09T14:13:05.571Z,4.45
2023-02-09T14:15:55.982Z,4.44
2023-02-09T14:18:29.888Z,4.40
2023-02-09T14:21:05.262Z,4.41
2023-02-09T14:23:37.856Z,4.37
2023-02-09T14:26:08.060Z,4.41
2023-02-09T14:28:37.868Z,4.45
2023-02-09T14:31:08.063Z,4.49
2023-02-09T14:33:38.514Z,4.41
2023-02-09T14:36:25.706Z,4.30
2023-02-09T14:38:55.244Z,4.31
2023-02-09T14:41:31.436Z,4.27
2023-02-09T14:44:01.644Z,4.22
2023-02-09T14:46:47.555Z,4.23
2023-02-09T14:49:16.233Z,4.25
2023-02-09T14:51:46.325Z,4.27
2023-02-09T14:54:24.266Z,4.26
2023-02-09T14:56:54.582Z,4.24
2023-02-09T14:59:23.277Z,4.26
2023-02-09T15:01:53.111Z,4.24
2023-02-09T15:04:21.171Z,4.28
2023-02-09T15:06:59.500Z,4.33
2023-02-09T15:09:33.801Z,4.33
2023-02-09T15:12:07.698Z,4.29
2023-02-09T15:14:41.453Z,4.28
2023-02-09T15:17:14.975Z,4.22
2023-02-09T15:19:43.572Z,4.25
2023-02-09T15:22:20.808Z,4.33
2023-02-09T15:24:51.786Z,4.36
2023-02-09T15:27:27.043Z,4.30
2023-02-09T15:29:57.979Z,4.28
2023-02-09T15:32:29.881Z,4.19
2023-02-09T15:34:58.593Z,4.08
2023-02-09T15:37:30.581Z,4.08
2023-02-09T15:40:02.270Z,4.12
2023-02-09T15:42:49.313Z,4.12
2023-02-09T15:45:34.055Z,4.11
2023-02-09T15:48:01.975Z,4.12
2023-02-09T15:50:30.846Z,4.07
2023-02-09T15:53:00.154Z,4.06
2023-02-09T15:55:28.639Z,4.06
2023-02-09T15:57:56.978Z,4.06
2023-02-09T16:00:27.136Z,4.03
2023-02-09T16:02:57.755Z,4.03
2023-02-09T16:05:28.120Z,4.06
2023-02-09T16:07:56.463Z,4.09
2023-02-09T16:10:27.496Z,4.09
2023-02-09T16:12:55.756Z,4.07
2023-02-09T16:15:25.882Z,4.04
2023-02-09T16:17:54.274Z,4.06
2023-02-09T16:20:23.722Z,4.06
2023-02-09T16:22:55.120Z,4.06
2023-02-09T16:25:28.221Z,4.05
2023-02-09T16:27:57.484Z,4.07
2023-02-09T16:30:27.532Z,4.08
2023-02-09T16:32:56.830Z,4.07
2023-02-09T16:35:25.808Z,4.05
2023-02-09T16:37:55.971Z,4.08
2023-02-09T16:40:28.583Z,4.05
2023-02-09T16:42:58.229Z,4.06
2023-02-09T16:45:28.614Z,4.07
2023-02-09T16:47:59.785Z,4.06
2023-02-09T16:50:32.931Z,4.05
2023-02-09T16:53:03.213Z,4.00
2023-02-09T16:55:34.119Z,4.02
2023-02-09T16:58:04.601Z,3.99
2023-02-09T17:00:36.943Z,4.01
2023-02-09T17:03:13.968Z,4.00
2023-02-09T17:05:44.491Z,4.04
2023-02-09T17:08:18.052Z,4.00
2023-02-09T17:11:01.309Z,3.95
2023-02-09T17:13:30.933Z,3.95
2023-02-09T17:16:02.315Z,3.92
2023-02-09T17:18:33.357Z,3.89
2023-02-09T17:21:05.370Z,3.82
2023-02-09T17:23:33.133Z,3.86
2023-02-09T17:26:02.987Z,3.94
2023-02-09T17:28:31.664Z,4.03
2023-02-09T17:31:04.825Z,4.02
2023-02-09T17:33:36.264Z,4.05
2023-02-09T17:38:54.421Z,4.19
2023-02-09T17:41:29.570Z,4.05
2023-02-09T17:44:17.557Z,3.98
2023-02-09T17:46:49.604Z,3.93
2023-02-09T17:49:17.433Z,3.96
2023-02-09T17:51:47.448Z,3.91
2023-02-09T17:54:17.756Z,3.94
2023-02-09T17:56:48.376Z,3.94
2023-02-09T17:59:19.707Z,3.92
2023-02-09T18:01:50.652Z,3.91
2023-02-09T18:04:23.447Z,3.86
2023-02-09T18:06:51.500Z,3.83
2023-02-09T18:09:19.321Z,3.83
2023-02-09T18:12:02.102Z,3.76
2023-02-09T18:14:32.926Z,3.76
2023-02-09T18:17:00.901Z,3.81
2023-02-09T18:19:28.676Z,3.83
2023-02-09T18:21:59.252Z,3.75
2023-02-09T18:24:30.046Z,3.71
2023-02-09T18:26:59.380Z,3.74
2023-02-09T18:29:30.136Z,3.74
2023-02-09T18:31:58.909Z,3.80
2023-02-09T18:34:29.069Z,3.82
2023-02-09T18:36:57.126Z,3.85
2023-02-09T18:39:26.689Z,3.88
2023-02-09T18:41:55.221Z,3.91
2023-02-09T18:44:29.334Z,3.92
2023-02-09T18:47:00.340Z,3.93
2023-02-09T18:49:28.231Z,3.96
2023-02-09T18:51:57.009Z,3.93
2023-02-09T18:54:24.949Z,3.93
2023-02-09T18:56:54.557Z,3.92
2023-02-09T18:59:30.856Z,3.93
2023-02-09T19:01:59.074Z,3.96
2023-02-09T19:04:27.082Z,4.00
2023-02-09T19:06:55.328Z,3.98
2023-02-09T19:09:23.205Z,3.98
2023-02-09T19:11:52.022Z,3.99
2023-02-09T19:14:38.113Z,4.02
2023-02-09T19:17:09.335Z,4.03
2023-02-09T19:19:40.223Z,4.02
2023-02-09T19:22:15.061Z,4.04
2023-02-09T19:24:43.014Z,4.08
2023-02-09T19:27:11.577Z,4.09
2023-02-09T19:29:41.853Z,4.12
2023-02-09T19:32:12.630Z,4.09
2023-02-09T19:34:45.393Z,4.13
2023-02-09T19:37:16.267Z,4.14
2023-02-09T19:39:52.693Z,4.26
2023-02-09T19:42:21.567Z,4.34
2023-02-09T19:44:50.224Z,4.32
2023-02-09T19:47:25.490Z,4.34
2023-02-09T19:49:53.530Z,4.36
2023-02-09T19:52:21.462Z,4.40
2023-02-09T19:54:49.954Z,4.37
2023-02-09T19:57:17.747Z,4.39
2023-02-09T19:59:45.527Z,4.36
2023-02-09T20:02:13.937Z,4.34
2023-02-09T20:04:45.872Z,4.26
2023-02-09T20:07:14.813Z,4.29
2023-02-09T20:09:43.015Z,4.26
2023-02-09T20:12:10.789Z,4.24
2023-02-09T20:14:38.545Z,4.19
2023-02-09T20:17:06.212Z,4.21
2023-02-09T20:19:36.877Z,4.20
2023-02-09T20:22:06.038Z,4.11
2023-02-09T20:24:34.718Z,4.19
2023-02-09T20:27:02.522Z,4.15
2023-02-09T20:29:30.308Z,4.16
2023-02-09T20:31:58.527Z,4.22
2023-02-09T20:34:26.936Z,4.16
2023-02-09T20:36:58.254Z,4.17
2023-02-09T20:39:27.828Z,4.21
2023-02-09T20:42:16.697Z,4.23
2023-02-09T20:45:03.178Z,4.22
2023-02-09T20:47:31.119Z,4.14
2023-02-09T20:50:00.420Z,4.01
2023-02-09T20:52:31.288Z,4.03
2023-02-09T20:55:00.633Z,4.05
2023-02-09T20:57:30.216Z,4.07
2023-02-09T20:59:58.091Z,4.11
2023-02-09T21:02:28.970Z,4.10
2023-02-09T21:04:57.917Z,4.11
2023-02-09T21:07:26.429Z,4.05
2023-02-09T21:09:56.657Z,3.91
2023-02-09T21:12:25.864Z,3.91
2023-02-09T21:14:53.606Z,3.86
2023-02-09T21:17:22.186Z,3.95
2023-02-09T21:19:50.119Z,3.94
2023-02-09T21:22:18.273Z,3.93
2023-02-09T21:24:46.159Z,3.89
2023-02-09T21:27:14.451Z,3.86
2023-02-09T21:29:43.403Z,3.93
2023-02-09T21:32:13.967Z,3.97
2023-02-09T21:34:41.631Z,3.94
2023-02-09T21:37:12.723Z,3.97
2023-02-09T21:39:40.489Z,3.97
2023-02-09T21:42:29.434Z,3.95
2023-02-09T21:44:59.411Z,3.90
2023-02-09T21:47:28.294Z,3.94
2023-02-09T21:49:56.055Z,4.02
2023-02-09T21:52:24.620Z,4.00
2023-02-09T21:54:53.757Z,4.03
2023-02-09T21:57:23.157Z,4.10
2023-02-09T21:59:50.868Z,4.13
2023-02-09T22:02:21.583Z,4.14
2023-02-09T22:04:49.746Z,4.15
2023-02-09T22:07:17.622Z,4.14
2023-02-09T22:09:45.275Z,4.21
2023-02-09T22:12:13.001Z,4.19
2023-02-09T22:14:40.661Z,4.24
2023-02-09T22:17:08.609Z,4.23
2023-02-09T22:19:37.769Z,4.16
2023-02-09T22:22:05.637Z,4.22
2023-02-09T22:24:34.742Z,4.22
2023-02-09T22:27:02.552Z,4.20
2023-02-09T22:29:33.092Z,4.21
2023-02-09T22:32:00.810Z,4.25
2023-02-09T22:34:28.421Z,4.20
2023-02-09T22:36:57.426Z,4.26
2023-02-09T22:39:25.158Z,4.20
2023-02-09T22:41:57.885Z,4.15
2023-02-09T22:44:29.786Z,4.15
2023-02-09T22:46:58.678Z,4.04
2023-02-09T22:49:26.563Z,4.08
2023-02-09T22:51:54.199Z,4.06
2023-02-09T22:54:23.493Z,4.12
2023-02-09T22:56:52.218Z,4.06
2023-02-09T22:59:20.118Z,4.00
2023-02-09T23:01:48.515Z,4.06
2023-02-09T23:04:16.374Z,4.13
2023-02-09T23:06:44.147Z,4.05
2023-02-09T23:09:13.191Z,4.07
2023-02-09T23:11:44.102Z,4.11
2023-02-09T23:14:14.297Z,4.13
2023-02-09T23:16:44.206Z,4.08
2023-02-09T23:19:15.343Z,4.00
2023-02-09T23:21:44.653Z,4.09
2023-02-09T23:24:13.398Z,4.11
2023-02-09T23:26:45.445Z,3.99
2023-02-09T23:29:15.663Z,4.04
2023-02-09T23:31:44.496Z,4.05
2023-02-09T23:34:15.120Z,4.03
2023-02-09T23:36:43.163Z,4.00
2023-02-09T23:39:15.258Z,3.90
2023-02-09T23:41:44.637Z,3.90
2023-02-09T23:44:13.117Z,3.80
2023-02-09T23:46:41.639Z,3.75
2023-02-09T23:49:09.370Z,3.84
2023-02-09T23:51:37.391Z,3.92
2023-02-09T23:54:07.027Z,3.86
2023-02-09T23:56:37.053Z,3.90
2023-02-09T23:59:07.390Z,3.82
